Time;durP1;ratioP1;P1;durP2;ratioP2;P2;SDS_P1;SDS_P2;PMS_P1;PMS_P2;Temp;Humidity;BMP_temperature;BMP_pressure;BME280_temperature;BME280_humidity;BME280_pressure;Samples;Min_cycle;Max_cycle;Signal;HPM_P1;HPM_P2
2021/11/16 00:01:59;;;;;;;;;27.75;20.50;;;;;7.89;73.53;101574.31;5005202;28;46143;-73
2021/11/16 00:04:24;;;;;;;;;14.75;14.25;;;;;7.85;73.82;101563.91;4994853;27;45365;-72
2021/11/16 00:06:52;;;;;;;;;21.00;18.00;;;;;7.86;74.45;101563.88;4996644;28;45299;-70
2021/11/16 00:09:18;;;;;;;;;25.50;18.00;;;;;7.84;73.84;101554.31;5010225;28;45408;-70
2021/11/16 00:11:43;;;;;;;;;23.00;16.75;;;;;7.90;73.85;101562.09;5010068;28;46923;-70
2021/11/16 00:14:09;;;;;;;;;19.75;14.50;;;;;7.89;73.80;101569.06;4994015;28;45488;-70
2021/11/16 00:16:37;;;;;;;;;15.00;15.00;;;;;7.83;73.12;101561.31;4995427;28;45518;-70
2021/11/16 00:19:07;;;;;;;;;17.25;13.75;;;;;7.79;74.00;101551.75;4995112;28;45296;-70
2021/11/16 00:21:32;;;;;;;;;21.00;15.25;;;;;7.81;73.39;101554.38;4994388;28;46995;-72
2021/11/16 00:24:02;;;;;;;;;19.00;17.50;;;;;7.74;73.41;101541.34;4994296;28;45413;-73
2021/11/16 00:26:28;;;;;;;;;15.00;14.25;;;;;7.73;73.52;101539.63;4994761;28;45183;-72
2021/11/16 00:28:54;;;;;;;;;14.75;12.00;;;;;7.69;73.38;101548.41;4995072;28;45205;-70
2021/11/16 00:31:20;;;;;;;;;17.25;12.00;;;;;7.64;73.75;101551.94;4994944;28;45601;-71
2021/11/16 00:33:46;;;;;;;;;24.75;15.00;;;;;7.57;74.36;101538.94;5009759;27;45611;-70
2021/11/16 00:36:11;;;;;;;;;15.50;14.00;;;;;7.54;74.25;101535.50;4994530;28;45333;-73
2021/11/16 00:38:39;;;;;;;;;16.00;10.00;;;;;7.54;74.79;101541.59;4994527;28;45611;-69
2021/11/16 00:41:04;;;;;;;;;21.25;16.75;;;;;7.50;74.28;101526.81;4994623;28;45469;-70
2021/11/16 00:43:30;;;;;;;;;19.75;16.25;;;;;7.49;74.65;101518.97;4994218;28;45461;-70
2021/11/16 00:45:56;;;;;;;;;25.00;20.00;;;;;7.16;75.37;101460.00;4993257;28;45314;-71
2021/11/16 00:48:23;;;;;;;;;17.00;15.75;;;;;7.56;75.33;101507.56;4995155;28;45406;-71
2021/11/16 00:50:52;;;;;;;;;19.00;17.25;;;;;7.59;75.98;101515.38;4993896;28;46119;-71
2021/11/16 00:53:19;;;;;;;;;22.00;17.00;;;;;7.62;75.80;101520.56;4993954;28;45310;-72
2021/11/16 00:55:45;;;;;;;;;26.25;22.00;;;;;7.57;75.53;101511.91;4999407;28;45368;-73
2021/11/16 00:58:11;;;;;;;;;19.25;17.25;;;;;7.57;74.54;101517.13;4996496;28;45574;-72
2021/11/16 01:00:36;;;;;;;;;11.75;9.00;;;;;7.53;74.97;101508.44;4993817;28;45983;-73
2021/11/16 01:03:02;;;;;;;;;24.00;20.75;;;;;7.54;75.31;101506.69;4994052;28;45370;-71
2021/11/16 01:05:28;;;;;;;;;20.75;15.75;;;;;7.58;75.42;101500.53;4994066;28;45295;-73
2021/11/16 01:07:54;;;;;;;;;17.50;13.00;;;;;7.61;74.97;101492.66;5079479;27;45252;-73
2021/11/16 01:10:21;;;;;;;;;18.50;15.50;;;;;7.53;75.53;101481.41;5009141;28;47369;-73
2021/11/16 01:12:47;;;;;;;;;23.00;17.75;;;;;7.64;75.88;101502.19;4994739;28;45418;-71
2021/11/16 01:15:15;;;;;;;;;25.75;19.50;;;;;7.66;75.80;101498.69;4997292;28;45256;-72
2021/11/16 01:17:41;;;;;;;;;20.75;15.75;;;;;7.66;75.30;101493.44;5003094;28;45364;-73
2021/11/16 01:20:09;;;;;;;;;20.00;18.25;;;;;7.61;75.16;101492.66;5003676;28;45389;-74
2021/11/16 01:22:35;;;;;;;;;20.75;18.25;;;;;7.59;76.27;101494.41;4997864;28;45189;-70
2021/11/16 01:25:01;;;;;;;;;22.25;18.50;;;;;7.50;76.48;101476.22;4995682;28;45305;-70
2021/11/16 01:27:32;;;;;;;;;25.25;14.25;;;;;7.57;75.94;101480.47;4994791;28;45745;-69
2021/11/16 01:29:58;;;;;;;;;22.25;18.50;;;;;7.57;76.21;101477.88;4994673;28;46188;-70
2021/11/16 01:34:58;;;;;;;;;26.25;19.75;;;;;7.70;76.32;101497.75;4994234;28;45810;-70
2021/11/16 01:37:24;;;;;;;;;17.75;15.25;;;;;7.67;76.69;101495.19;4994185;28;45263;-72
2021/11/16 01:39:51;;;;;;;;;17.00;15.00;;;;;7.71;76.58;101496.00;4993083;28;45230;-70
2021/11/16 01:42:20;;;;;;;;;18.50;15.25;;;;;7.71;76.65;101493.38;4993590;28;45216;-70
2021/11/16 01:44:47;;;;;;;;;20.00;15.50;;;;;7.69;76.06;101498.66;4993552;28;45240;-72
2021/11/16 01:47:13;;;;;;;;;24.25;18.75;;;;;7.68;77.23;101496.91;4993683;28;45588;-72
2021/11/16 01:49:39;;;;;;;;;21.75;19.50;;;;;7.61;76.63;101495.25;4993602;28;45853;-70
2021/11/16 01:52:05;;;;;;;;;18.75;15.50;;;;;7.67;76.89;101507.38;4993686;28;45573;-70
2021/11/16 01:54:31;;;;;;;;;16.00;10.75;;;;;7.68;76.69;101499.53;4994639;28;45259;-71
2021/11/16 01:56:56;;;;;;;;;27.00;19.25;;;;;7.62;76.24;101494.38;5009944;28;45377;-70
2021/11/16 01:59:22;;;;;;;;;20.50;19.75;;;;;7.60;76.56;101510.09;4995004;28;45622;-72
2021/11/16 02:01:49;;;;;;;;;20.25;16.00;;;;;7.53;77.22;101487.50;4993919;28;45328;-72
2021/11/16 02:04:17;;;;;;;;;24.00;16.75;;;;;7.65;77.68;101499.56;4994313;28;45336;-70
2021/11/16 02:06:44;;;;;;;;;22.00;16.00;;;;;7.63;76.81;101497.84;4994536;28;45241;-70
2021/11/16 02:09:13;;;;;;;;;20.25;16.50;;;;;7.62;77.15;101499.63;4993203;28;47564;-71
2021/11/16 02:11:39;;;;;;;;;23.00;16.00;;;;;7.58;77.36;101492.69;4997636;28;45534;-70
2021/11/16 02:14:07;;;;;;;;;19.50;17.00;;;;;7.59;77.72;101489.19;4996513;28;45402;-73
2021/11/16 02:16:35;;;;;;;;;18.50;16.75;;;;;7.58;77.61;101493.53;4997594;28;45327;-74
2021/11/16 02:19:01;;;;;;;;;23.75;17.00;;;;;7.49;77.47;101475.31;4996416;28;45931;-71
2021/11/16 02:21:27;;;;;;;;;22.25;15.50;;;;;7.55;77.88;101485.72;5013872;28;45500;-70
2021/11/16 02:23:53;;;;;;;;;23.75;16.75;;;;;7.58;78.38;101488.28;4998534;28;45310;-72
2021/11/16 02:26:18;;;;;;;;;28.25;18.75;;;;;7.60;78.48;101485.69;5002486;28;45264;-69
2021/11/16 02:28:45;;;;;;;;;20.50;18.50;;;;;7.59;77.80;101482.19;4999811;28;45958;-69
2021/11/16 02:31:16;;;;;;;;;24.75;18.25;;;;;7.57;77.65;101483.09;4997200;28;45279;-71
2021/11/16 02:33:44;;;;;;;;;24.00;17.75;;;;;7.56;78.02;101483.97;4994368;28;45495;-68
2021/11/16 02:36:11;;;;;;;;;20.25;18.00;;;;;7.57;77.79;101490.94;4996535;28;45394;-70
2021/11/16 02:38:37;;;;;;;;;22.00;14.75;;;;;7.56;78.49;101484.84;4995822;28;46275;-70
2021/11/16 02:41:04;;;;;;;;;21.25;17.00;;;;;7.53;78.54;101484.03;4994709;28;45675;-70
2021/11/16 02:43:31;;;;;;;;;21.00;18.75;;;;;7.51;78.90;101485.78;5013658;28;45401;-72
2021/11/16 02:45:57;;;;;;;;;24.00;19.00;;;;;7.49;78.84;101484.94;5002055;28;45365;-72
2021/11/16 02:48:22;;;;;;;;;23.75;19.25;;;;;7.48;78.91;101477.97;4995405;28;46026;-71
2021/11/16 02:50:54;;;;;;;;;21.25;16.50;;;;;7.50;79.18;101478.81;4995278;28;45259;-71
2021/11/16 02:53:19;;;;;;;;;22.50;16.00;;;;;7.46;79.21;101470.13;4995635;28;45264;-71
2021/11/16 02:55:45;;;;;;;;;21.00;15.25;;;;;7.48;78.92;101475.38;4995150;28;45339;-71
2021/11/16 02:58:12;;;;;;;;;23.50;17.25;;;;;7.47;78.14;101478.88;4993773;28;47928;-69
2021/11/16 03:00:40;;;;;;;;;20.25;15.00;;;;;7.48;78.73;101476.22;4995366;28;45476;-71
2021/11/16 03:03:05;;;;;;;;;22.00;17.75;;;;;7.51;78.53;101477.94;4995289;28;45314;-69
2021/11/16 03:05:35;;;;;;;;;20.75;17.75;;;;;7.50;78.23;101477.06;4995925;28;45481;-71
2021/11/16 03:08:02;;;;;;;;;21.25;16.50;;;;;7.51;78.61;101467.47;4995486;28;47193;-69
2021/11/16 03:10:30;;;;;;;;;23.75;17.50;;;;;7.53;78.80;101469.16;5010486;28;45322;-69
2021/11/16 03:12:57;;;;;;;;;22.00;17.50;;;;;7.48;77.83;101454.41;4995189;28;45354;-71
2021/11/16 03:15:23;;;;;;;;;21.25;17.00;;;;;7.52;77.68;101471.81;4995476;28;45528;-71
2021/11/16 03:17:49;;;;;;;;;18.50;15.00;;;;;7.50;78.19;101474.44;4997865;28;47128;-71
2021/11/16 03:20:16;;;;;;;;;19.25;16.25;;;;;7.44;77.71;101470.16;4996986;28;45254;-70
2021/11/16 03:22:49;;;;;;;;;23.00;14.50;;;;;7.39;78.33;101471.94;5010361;27;45359;-71
2021/11/16 03:25:15;;;;;;;;;19.50;18.00;;;;;7.41;78.13;101479.78;4996830;28;45269;-70
2021/11/16 03:27:44;;;;;;;;;23.75;16.75;;;;;7.34;77.87;101468.53;4996741;28;46086;-70
2021/11/16 03:30:10;;;;;;;;;21.50;18.00;;;;;7.35;78.46;101470.25;4995698;28;45448;-70
2021/11/16 03:32:36;;;;;;;;;20.50;16.75;;;;;7.35;78.06;101470.25;4997324;28;45333;-71
2021/11/16 03:35:05;;;;;;;;;18.00;13.75;;;;;7.33;78.49;101458.94;5011400;28;45325;-72
2021/11/16 03:37:37;;;;;;;;;29.75;20.25;;;;;7.42;78.42;101471.94;4995862;28;46895;-69
2021/11/16 03:40:03;;;;;;;;;14.75;11.50;;;;;7.46;78.16;101470.13;4999192;28;45371;-70
2021/11/16 03:42:28;;;;;;;;;30.50;22.75;;;;;7.40;78.17;101457.13;5009718;28;45402;-70
2021/11/16 03:44:53;;;;;;;;;25.75;20.75;;;;;7.44;78.57;101456.19;5008930;27;45165;-72
2021/11/16 03:47:19;;;;;;;;;19.00;15.50;;;;;7.51;78.41;101465.69;4999115;28;48339;-71
2021/11/16 03:49:46;;;;;;;;;24.25;18.00;;;;;7.48;78.20;101464.88;4997655;28;45441;-70
2021/11/16 03:52:11;;;;;;;;;21.00;17.25;;;;;7.51;77.89;101475.31;4995824;28;45380;-71
2021/11/16 03:54:37;;;;;;;;;21.50;15.50;;;;;7.52;78.43;101472.66;4995750;28;45523;-72
2021/11/16 03:57:02;;;;;;;;;25.00;19.00;;;;;7.56;77.61;101476.13;5011211;27;47926;-69
2021/11/16 03:59:30;;;;;;;;;57.50;44.25;;;;;7.54;77.32;101473.50;4994534;28;45343;-70
2021/11/16 04:01:57;;;;;;;;;19.25;13.75;;;;;7.58;76.35;101471.75;4994925;28;45416;-70
2021/11/16 04:04:24;;;;;;;;;17.50;14.75;;;;;7.59;76.96;101474.31;4994732;28;45277;-71
2021/11/16 04:06:49;;;;;;;;;14.50;12.25;;;;;7.55;77.28;101470.00;4994305;28;46987;-71
2021/11/16 04:09:16;;;;;;;;;17.25;14.00;;;;;7.59;76.63;101474.31;4994708;28;45235;-72
2021/11/16 04:11:41;;;;;;;;;18.25;16.50;;;;;7.59;77.49;101465.63;4995275;28;45321;-72
2021/11/16 04:14:07;;;;;;;;;17.50;14.25;;;;;7.62;77.37;101473.44;4994762;28;45441;-72
2021/11/16 04:16:32;;;;;;;;;21.50;15.00;;;;;7.59;76.62;101468.22;4997627;28;46597;-71
2021/11/16 04:18:58;;;;;;;;;22.25;18.50;;;;;7.58;76.71;101474.34;5010005;28;45397;-74
2021/11/16 04:21:23;;;;;;;;;22.00;17.50;;;;;7.57;77.05;101470.84;4994895;28;45381;-70
2021/11/16 04:23:49;;;;;;;;;18.75;15.25;;;;;7.60;77.48;101472.59;4994443;28;45424;-70
2021/11/16 04:26:14;;;;;;;;;19.50;16.25;;;;;7.60;77.49;101469.97;4994142;28;46276;-68
2021/11/16 04:28:40;;;;;;;;;23.00;17.75;;;;;7.59;77.08;101474.31;4994221;28;45344;-71
2021/11/16 04:31:05;;;;;;;;;21.75;18.50;;;;;7.54;77.56;101468.28;5009338;27;45352;-71
2021/11/16 04:33:31;;;;;;;;;23.00;18.50;;;;;7.55;77.00;101467.38;4997909;28;45370;-70
2021/11/16 04:35:57;;;;;;;;;22.00;16.50;;;;;7.57;77.08;101476.09;4994873;28;46241;-70
2021/11/16 04:38:23;;;;;;;;;19.00;16.25;;;;;7.55;76.95;101466.53;4996121;28;45266;-72
2021/11/16 04:40:54;;;;;;;;;19.50;17.50;;;;;7.54;77.25;101467.44;4996586;28;45410;-70
2021/11/16 04:43:24;;;;;;;;;23.75;18.75;;;;;7.56;77.56;101473.50;4996934;28;45303;-71
2021/11/16 04:45:55;;;;;;;;;20.00;17.75;;;;;7.48;77.45;101472.75;4996965;28;45411;-69
2021/11/16 04:54:00;;;;;;;;;22.50;20.50;;;;;7.40;77.03;101457.13;4999180;28;45460;-72
2021/11/16 05:04:38;;;;;;;;;20.50;19.75;;;;;7.42;77.15;101481.53;4994013;28;45487;-73
2021/11/16 05:07:16;;;;;;;;;28.50;24.00;;;;;7.46;77.42;101488.47;4994856;28;46192;-73
2021/11/16 05:09:47;;;;;;;;;28.25;22.25;;;;;7.44;77.35;101488.50;4993731;28;45269;-71
2021/11/16 05:12:12;;;;;;;;;31.75;22.25;;;;;7.20;77.20;101444.28;4994142;28;45794;-71
2021/11/16 05:14:38;;;;;;;;;24.00;17.25;;;;;7.45;76.93;101482.38;4997303;28;45509;-73
2021/11/16 05:17:04;;;;;;;;;34.00;24.25;;;;;7.40;77.71;101484.16;5004677;28;45622;-71
2021/11/16 05:19:30;;;;;;;;;27.25;25.25;;;;;7.45;77.46;101473.63;5000891;28;45407;-71
2021/11/16 05:21:56;;;;;;;;;25.25;20.50;;;;;7.45;77.54;101474.53;5079648;27;45444;-71
2021/11/16 05:24:24;;;;;;;;;31.50;24.00;;;;;7.43;77.46;101473.66;4993767;28;45384;-72
2021/11/16 05:26:49;;;;;;;;;31.00;21.75;;;;;7.47;78.20;101473.63;4993824;28;47437;-71
2021/11/16 05:29:15;;;;;;;;;25.75;21.00;;;;;7.56;77.19;101473.50;4993744;28;45193;-70
2021/11/16 05:31:41;;;;;;;;;28.00;21.00;;;;;7.52;77.61;101469.19;4993913;28;45343;-70
2021/11/16 05:34:06;;;;;;;;;26.00;21.00;;;;;7.62;77.18;101478.66;4992869;27;45545;-70
2021/11/16 05:36:31;;;;;;;;;28.25;20.50;;;;;7.61;77.22;101479.56;4993643;27;45284;-69
2021/11/16 05:38:57;;;;;;;;;30.75;21.75;;;;;7.59;77.00;101483.94;4993572;28;45488;-70
2021/11/16 05:41:22;;;;;;;;;25.00;22.75;;;;;7.50;77.34;101489.31;4993420;28;45355;-70
2021/11/16 05:43:48;;;;;;;;;27.75;24.50;;;;;7.51;77.92;101485.78;4994853;28;45604;-71
2021/11/16 05:46:20;;;;;;;;;27.00;24.25;;;;;7.52;76.63;101480.53;4994356;28;47176;-73
2021/11/16 05:48:47;;;;;;;;;23.75;22.50;;;;;7.54;77.74;101483.13;4995653;28;45320;-70
2021/11/16 05:51:13;;;;;;;;;26.50;23.75;;;;;7.54;76.54;101485.75;4995723;28;45573;-71
2021/11/16 05:53:43;;;;;;;;;24.25;20.50;;;;;7.52;77.15;101488.38;4996756;28;45457;-72
2021/11/16 05:56:08;;;;;;;;;20.75;19.25;;;;;7.53;77.08;101486.63;4997783;28;45742;-70
2021/11/16 05:58:33;;;;;;;;;33.00;22.50;;;;;7.54;76.06;101497.06;4996732;28;45209;-70
2021/11/16 06:00:59;;;;;;;;;28.75;21.75;;;;;7.54;76.78;101483.13;4996772;28;45652;-73
2021/11/16 06:03:25;;;;;;;;;15.50;13.00;;;;;7.57;76.37;101491.81;4995246;28;45368;-74
2021/11/16 06:05:50;;;;;;;;;23.50;19.25;;;;;7.52;76.12;101488.38;4996553;27;46123;-70
2021/11/16 06:08:24;;;;;;;;;29.50;23.75;;;;;7.50;76.30;101491.91;4995780;28;45271;-70
2021/11/16 06:10:50;;;;;;;;;31.75;25.75;;;;;7.50;76.58;101494.53;4997526;28;45275;-70
2021/11/16 06:13:16;;;;;;;;;28.75;19.50;;;;;7.49;76.44;101490.19;5012890;28;45249;-70
2021/11/16 06:15:42;;;;;;;;;27.00;22.75;;;;;7.53;76.50;101486.63;4996176;28;45313;-69
2021/11/16 06:18:08;;;;;;;;;33.00;26.50;;;;;7.56;76.50;101490.06;4996103;28;45380;-70
2021/11/16 06:20:34;;;;;;;;;28.75;19.50;;;;;7.57;76.04;101494.41;4996534;28;45427;-69
2021/11/16 06:23:00;;;;;;;;;27.75;21.00;;;;;7.56;76.39;101487.44;4995916;28;45358;-69
2021/11/16 06:25:25;;;;;;;;;24.25;22.75;;;;;7.58;76.30;101492.69;4996496;28;47086;-70
2021/11/16 06:27:50;;;;;;;;;33.00;21.25;;;;;7.54;76.41;101497.06;5011288;28;45414;-70
2021/11/16 06:30:16;;;;;;;;;30.50;23.25;;;;;7.48;76.44;101494.53;4996902;28;45359;-70
2021/11/16 06:32:43;;;;;;;;;28.75;22.75;;;;;7.50;76.98;101505.00;4996547;28;45326;-69
2021/11/16 06:35:18;;;;;;;;;24.50;22.75;;;;;7.51;77.03;101504.97;4995855;28;45403;-69
2021/11/16 06:37:45;;;;;;;;;35.25;27.50;;;;;7.55;77.24;101505.81;4995753;28;45415;-69
2021/11/16 06:40:10;;;;;;;;;27.75;22.50;;;;;7.53;77.00;101502.34;5011175;28;45380;-69
2021/11/16 06:42:37;;;;;;;;;29.00;23.75;;;;;7.54;77.19;101497.06;4995554;28;45555;-70
2021/11/16 06:45:03;;;;;;;;;34.00;21.25;;;;;7.60;76.77;101509.25;4997812;28;46318;-72
2021/11/16 06:47:29;;;;;;;;;30.75;23.50;;;;;7.64;76.72;101503.06;4995152;28;45270;-71
2021/11/16 06:49:54;;;;;;;;;28.00;21.75;;;;;7.66;76.85;101501.31;4996714;28;45445;-73
2021/11/16 06:52:20;;;;;;;;;26.75;21.50;;;;;7.60;76.65;101501.38;4995854;28;45523;-69
2021/11/16 06:54:46;;;;;;;;;47.75;35.00;;;;;7.64;76.79;101505.69;4993203;28;46907;-72
2021/11/16 06:57:12;;;;;;;;;28.25;22.25;;;;;7.64;77.26;101503.06;4995220;28;45257;-72
2021/11/16 06:59:39;;;;;;;;;30.00;25.75;;;;;7.73;77.10;101507.31;4995541;28;45203;-73
2021/11/16 07:02:05;;;;;;;;;24.50;21.00;;;;;7.76;76.95;101502.03;4993893;28;45315;-73
2021/11/16 07:04:37;;;;;;;;;31.50;25.75;;;;;7.75;76.42;101502.91;5010441;28;47167;-70
2021/11/16 07:07:02;;;;;;;;;29.00;23.50;;;;;7.66;75.94;101488.22;4995557;28;45386;-70
2021/11/16 07:09:35;;;;;;;;;26.00;21.50;;;;;7.62;76.09;101488.25;5011111;28;45758;-71
2021/11/16 07:12:00;;;;;;;;;31.75;25.75;;;;;7.63;75.92;101510.94;4997934;28;45346;-70
2021/11/16 07:14:36;;;;;;;;;25.00;22.00;;;;;7.59;76.01;101521.44;5019929;28;46090;-70
2021/11/16 07:17:03;;;;;;;;;22.75;20.25;;;;;7.55;75.00;101526.75;5005181;28;45444;-65
2021/11/16 07:19:38;;;;;;;;;27.50;22.25;;;;;7.52;75.71;101511.94;5014199;28;45463;-68
2021/11/16 07:22:12;;;;;;;;;25.25;24.25;;;;;7.57;76.28;101514.50;5012398;28;45491;-67
2021/11/16 07:24:46;;;;;;;;;35.00;29.50;;;;;7.63;76.81;101513.56;5033062;28;46647;-66
2021/11/16 07:27:13;;;;;;;;;34.00;22.75;;;;;7.70;76.45;101509.97;5035135;28;45249;-66
2021/11/16 07:29:54;;;;;;;;;29.25;21.25;;;;;7.74;75.40;101506.41;5035827;28;45249;-69
2021/11/16 07:32:41;;;;;;;;;27.75;25.75;;;;;7.69;75.89;101498.66;5034839;28;45325;-68
2021/11/16 07:35:08;;;;;;;;;28.75;22.50;;;;;7.73;75.87;101513.44;5033741;28;47250;-72
2021/11/16 07:37:36;;;;;;;;;25.75;20.00;;;;;7.68;75.88;101510.00;5033883;28;45390;-73
2021/11/16 07:40:17;;;;;;;;;26.25;21.50;;;;;7.70;76.02;101515.22;5035319;28;45421;-74
2021/11/16 07:43:01;;;;;;;;;28.75;21.25;;;;;7.67;74.96;101505.66;5035357;28;45208;-71
2021/11/16 07:45:40;;;;;;;;;20.50;20.00;;;;;7.77;75.31;101516.00;5032679;28;48553;-71
2021/11/16 07:48:11;;;;;;;;;21.00;17.75;;;;;7.75;74.80;101518.63;5034412;28;45512;-72
2021/11/16 07:50:47;;;;;;;;;27.50;19.25;;;;;7.72;75.53;101519.56;5035345;28;45482;-72
2021/11/16 07:53:30;;;;;;;;;25.00;21.50;;;;;7.67;76.68;101517.88;5034795;28;45234;-72
2021/11/16 07:55:58;;;;;;;;;29.00;23.25;;;;;7.75;75.93;101516.00;5034272;28;46008;-72
2021/11/16 07:58:35;;;;;;;;;33.25;25.00;;;;;7.68;74.77;101501.25;5034280;28;45317;-71
2021/11/16 08:01:07;;;;;;;;;16.50;14.50;;;;;7.71;73.98;101502.09;5035920;27;45262;-69
2021/11/16 08:03:42;;;;;;;;;30.00;24.25;;;;;7.72;74.13;101495.09;5038687;28;45225;-71
2021/11/16 08:06:13;;;;;;;;;24.75;21.75;;;;;7.83;74.90;101505.44;5049823;28;48282;-72
2021/11/16 08:09:30;;;;;;;;;23.75;17.25;;;;;7.86;74.80;101498.38;5038701;28;45402;-67
2021/11/16 08:14:09;;;;;;;;;31.75;21.00;;;;;8.03;74.33;101511.25;5035765;28;45275;-69
2021/11/16 08:16:47;;;;;;;;;19.25;18.00;;;;;8.08;74.06;101512.94;5032738;28;47315;-69
2021/11/16 08:19:13;;;;;;;;;28.25;21.25;;;;;8.12;73.87;101519.88;5033467;28;45305;-70
2021/11/16 08:21:43;;;;;;;;;25.75;19.50;;;;;8.17;74.02;101525.91;5034287;28;45225;-67
2021/11/16 08:24:12;;;;;;;;;25.50;20.75;;;;;8.18;73.49;101520.66;5035218;28;45585;-66
2021/11/16 08:26:42;;;;;;;;;22.25;19.00;;;;;8.13;72.91;101516.38;5035809;28;45285;-66
2021/11/16 08:29:11;;;;;;;;;28.00;23.75;;;;;8.15;73.77;101514.59;5036231;28;45490;-67
2021/11/16 08:31:52;;;;;;;;;23.25;20.00;;;;;8.24;72.98;101513.59;5040191;28;45372;-68
2021/11/16 08:34:19;;;;;;;;;28.75;19.25;;;;;8.26;72.97;101499.56;5041439;28;45324;-69
2021/11/16 08:36:54;;;;;;;;;25.25;20.75;;;;;8.37;73.13;101498.53;5038172;28;47063;-71
2021/11/16 08:39:31;;;;;;;;;29.50;25.00;;;;;8.45;73.15;101499.25;5041098;28;45445;-66
2021/11/16 08:41:56;;;;;;;;;23.25;19.75;;;;;8.56;72.40;101496.50;5044932;28;45306;-67
2021/11/16 08:44:30;;;;;;;;;19.50;18.25;;;;;8.62;71.30;101499.00;5077283;28;44838;-71
2021/11/16 08:47:06;;;;;;;;;27.25;20.00;;;;;8.70;71.64;101496.28;5037556;28;45505;-68
2021/11/16 08:49:33;;;;;;;;;23.00;17.00;;;;;8.76;71.12;101491.75;5072658;28;45467;-68
2021/11/16 08:52:03;;;;;;;;;22.00;17.75;;;;;8.86;70.81;101491.59;5035846;28;45318;-68
2021/11/16 08:54:35;;;;;;;;;19.25;15.00;;;;;8.89;70.88;101481.94;5033873;28;45337;-68
2021/11/16 08:57:04;;;;;;;;;24.50;15.00;;;;;8.97;70.16;101500.13;5033298;28;47099;-68
2021/11/16 08:59:34;;;;;;;;;20.25;15.50;;;;;8.96;69.73;101482.66;5035241;28;45349;-66
2021/11/16 09:02:03;;;;;;;;;20.25;18.50;;;;;9.04;70.00;101485.16;5034240;28;45251;-67
2021/11/16 09:04:32;;;;;;;;;29.25;26.25;;;;;9.05;69.84;101473.75;5034021;28;45411;-71
2021/11/16 09:06:59;;;;;;;;;25.50;23.50;;;;;9.15;69.30;101491.06;5033628;28;46469;-67
2021/11/16 09:09:26;;;;;;;;;33.50;29.75;;;;;9.20;69.53;101498.84;5033655;28;45194;-67
2021/11/16 09:12:00;;;;;;;;;19.75;15.75;;;;;9.16;67.74;101495.41;5033704;28;45306;-65
2021/11/16 09:14:26;;;;;;;;;27.50;21.50;;;;;9.09;68.90;101485.94;5034898;28;45282;-70
2021/11/16 09:16:53;;;;;;;;;24.50;20.00;;;;;9.17;68.33;101494.50;5036356;28;46297;-70
2021/11/16 09:19:29;;;;;;;;;35.50;32.50;;;;;9.18;68.77;101480.50;5066811;28;45423;-68
2021/11/16 09:21:55;;;;;;;;;28.50;25.50;;;;;9.27;69.25;101470.69;5035288;28;45470;-67
2021/11/16 09:24:36;;;;;;;;;45.00;33.50;;;;;9.38;69.09;101479.22;5034814;28;45410;-66
2021/11/16 09:29:32;;;;;;;;;23.25;19.00;;;;;9.48;68.36;101465.00;5034714;28;45408;-65
2021/11/16 09:32:01;;;;;;;;;27.25;19.25;;;;;9.55;68.45;101472.78;5034759;28;45245;-67
2021/11/16 09:34:32;;;;;;;;;22.75;16.00;;;;;9.56;67.85;101469.25;5036089;28;45533;-67
2021/11/16 09:37:00;;;;;;;;;20.75;18.75;;;;;9.58;67.84;101468.28;5038798;28;47289;-68
2021/11/16 09:39:34;;;;;;;;;21.50;21.00;;;;;9.58;67.75;101465.66;5040907;28;45292;-70
2021/11/16 09:42:06;;;;;;;;;18.75;14.50;;;;;9.61;67.62;101473.47;5035193;28;45425;-71
2021/11/16 09:44:40;;;;;;;;;19.25;16.00;;;;;9.60;67.21;101460.41;5033207;28;45461;-71
2021/11/16 09:47:17;;;;;;;;;21.50;16.00;;;;;9.61;66.86;101470.00;5032836;28;46447;-70
2021/11/16 09:50:06;;;;;;;;;19.00;14.75;;;;;9.57;67.14;101466.56;5032696;28;45311;-67
2021/11/16 09:52:34;;;;;;;;;22.25;18.00;;;;;9.56;66.97;101451.72;5033689;28;45196;-66
2021/11/16 09:55:12;;;;;;;;;18.75;16.00;;;;;9.63;67.24;101457.69;5038499;28;45536;-70
2021/11/16 09:57:48;;;;;;;;;23.00;18.50;;;;;9.74;67.67;101460.06;5033582;28;45424;-70
2021/11/16 10:00:20;;;;;;;;;28.25;24.25;;;;;9.83;67.14;101470.38;5033472;28;45175;-68
2021/11/16 10:03:04;;;;;;;;;22.25;17.25;;;;;9.79;65.95;101469.59;5032796;28;45351;-72
2021/11/16 10:05:38;;;;;;;;;22.00;17.00;;;;;9.78;66.22;101474.88;5033954;28;45309;-69
2021/11/16 10:08:05;;;;;;;;;24.50;19.50;;;;;9.81;67.12;101472.16;5033593;28;46182;-68
2021/11/16 10:10:34;;;;;;;;;16.25;12.25;;;;;9.91;66.11;101470.22;5032881;28;45305;-69
2021/11/16 10:13:07;;;;;;;;;18.75;15.75;;;;;9.92;65.77;101471.94;5032918;28;45406;-70
2021/11/16 10:15:35;;;;;;;;;17.00;13.25;;;;;9.88;65.63;101486.06;5032994;28;45313;-71
2021/11/16 10:18:02;;;;;;;;;15.75;13.50;;;;;9.78;65.27;101477.50;5033508;28;46256;-71
2021/11/16 10:20:31;;;;;;;;;13.75;11.50;;;;;9.74;65.94;101473.22;5064701;28;45986;-68
2021/11/16 10:23:00;;;;;;;;;15.25;13.75;;;;;9.70;65.88;101475.06;5032154;27;45423;-68
2021/11/16 10:25:29;;;;;;;;;14.75;14.50;;;;;9.67;66.22;101472.50;5032293;28;45613;-67
2021/11/16 10:27:58;;;;;;;;;19.75;18.00;;;;;9.61;65.73;101480.53;5032049;28;46355;-72
2021/11/16 10:30:29;;;;;;;;;16.00;14.00;;;;;9.53;66.25;101472.78;5065618;27;45347;-74
2021/11/16 10:33:16;;;;;;;;;39.75;33.00;;;;;9.54;66.51;101466.63;5035694;28;45315;-69
2021/11/16 10:35:54;;;;;;;;;16.25;16.25;;;;;9.62;66.30;101466.47;5036398;28;45363;-67
2021/11/16 10:38:44;;;;;;;;;25.50;19.00;;;;;9.67;66.34;101469.88;5035405;28;46113;-67
2021/11/16 10:41:13;;;;;;;;;23.25;19.00;;;;;9.71;66.60;101462.78;5034956;28;45308;-69
2021/11/16 10:43:43;;;;;;;;;19.00;16.25;;;;;9.82;66.42;101462.53;5036768;28;45385;-71
2021/11/16 10:46:10;;;;;;;;;23.00;18.00;;;;;9.81;66.48;101468.69;5035973;28;45398;-70
2021/11/16 10:48:37;;;;;;;;;23.25;16.25;;;;;9.74;66.18;101467.97;5034967;28;46308;-69
2021/11/16 10:51:12;;;;;;;;;18.50;18.50;;;;;9.71;66.59;101473.28;5035807;28;45566;-66
2021/11/16 10:53:45;;;;;;;;;25.00;18.25;;;;;9.67;66.34;101466.38;5035357;28;45246;-68
2021/11/16 10:56:14;;;;;;;;;19.50;16.50;;;;;9.62;66.42;101462.06;5038744;28;45305;-69
2021/11/16 10:58:41;;;;;;;;;16.00;13.50;;;;;9.64;66.48;101455.03;5036693;28;46050;-68
2021/11/16 11:01:10;;;;;;;;;19.25;16.00;;;;;9.73;66.44;101464.47;5035432;28;45390;-69
2021/11/16 11:03:42;;;;;;;;;22.00;19.25;;;;;9.76;66.53;101467.03;5033510;28;45494;-70
2021/11/16 11:06:20;;;;;;;;;15.00;14.00;;;;;9.80;66.17;101462.56;5034722;28;45443;-68
2021/11/16 11:08:57;;;;;;;;;17.75;15.75;;;;;9.75;66.23;101460.06;5034629;28;45501;-67
2021/11/16 11:11:25;;;;;;;;;16.25;14.25;;;;;9.77;66.13;101457.38;5037074;28;45249;-70
2021/11/16 11:14:02;;;;;;;;;17.25;15.50;;;;;9.76;66.34;101453.91;5034445;28;45272;-68
2021/11/16 11:16:29;;;;;;;;;18.50;15.75;;;;;9.77;65.76;101450.38;5034503;28;45368;-70
2021/11/16 11:18:55;;;;;;;;;19.00;16.00;;;;;9.72;65.36;101451.38;5034505;28;46185;-67
2021/11/16 11:21:38;;;;;;;;;19.50;17.75;;;;;9.64;66.16;101448.94;5034369;28;45658;-67
2021/11/16 11:24:12;;;;;;;;;21.25;16.25;;;;;9.64;66.40;101441.03;5034745;28;45388;-69
2021/11/16 11:29:21;;;;;;;;;27.00;22.50;;;;;9.63;66.90;101434.06;5034193;28;45455;-70
2021/11/16 11:31:55;;;;;;;;;23.25;19.75;;;;;9.62;66.95;101433.19;5034730;28;45290;-69
2021/11/16 11:34:30;;;;;;;;;25.00;18.25;;;;;9.58;66.77;101431.53;5032909;28;45378;-69
2021/11/16 11:37:04;;;;;;;;;26.50;22.50;;;;;9.54;66.96;101427.25;5035128;28;45637;-70
2021/11/16 11:39:31;;;;;;;;;20.50;18.75;;;;;9.45;67.16;101411.69;5033555;28;46283;-69
2021/11/16 11:41:58;;;;;;;;;26.50;19.50;;;;;9.54;67.09;101421.97;5034737;28;45418;-69
2021/11/16 11:44:26;;;;;;;;;19.25;17.50;;;;;9.50;67.08;101408.03;5036269;28;45481;-70
2021/11/16 11:46:53;;;;;;;;;20.50;19.75;;;;;9.42;67.32;101399.47;5042662;28;45554;-69
2021/11/16 11:49:20;;;;;;;;;37.75;28.25;;;;;9.55;67.47;101417.63;5042408;28;45646;-71